Time;durP1;ratioP1;P1;durP2;ratioP2;P2;SDS_P1;SDS_P2;PMS_P1;PMS_P2;Temp;Humidity;BMP_temperature;BMP_pressure;BME280_temperature;BME280_humidity;BME280_pressure;Samples;Min_cycle;Max_cycle;Signal;HPM_P1;HPM_P2
2022/04/15 00:01:22;;;;;;;18.55;6.10;;;13.20;87.40;;;;;;4908970;29;20029;-80
2022/04/15 00:03:52;;;;;;;17.27;6.10;;;13.20;87.20;;;;;;4915330;29;20036;-81
2022/04/15 00:06:20;;;;;;;22.23;6.53;;;13.20;87.30;;;;;;4905914;29;20037;-81
2022/04/15 00:08:47;;;;;;;10.80;5.93;;;13.20;87.50;;;;;;4910409;29;20039;-81
2022/04/15 00:11:13;;;;;;;18.15;6.28;;;13.20;88.00;;;;;;4909875;29;20053;-81
2022/04/15 00:13:41;;;;;;;12.65;6.10;;;13.20;89.10;;;;;;4911851;29;20033;-80
2022/04/15 00:16:08;;;;;;;15.82;5.63;;;13.10;89.60;;;;;;4904861;29;20048;-82
2022/04/15 00:18:35;;;;;;;12.68;5.93;;;13.10;90.00;;;;;;4910753;29;20032;-80
2022/04/15 00:21:02;;;;;;;13.57;6.22;;;13.00;90.10;;;;;;4918344;29;20080;-81
2022/04/15 00:23:28;;;;;;;11.70;5.57;;;13.00;90.20;;;;;;4916314;29;20036;-78
2022/04/15 00:25:54;;;;;;;14.07;4.93;;;12.90;90.10;;;;;;4901742;29;20493;-81
2022/04/15 00:28:21;;;;;;;16.35;5.10;;;12.90;89.50;;;;;;4904891;29;20055;-81
2022/04/15 00:30:47;;;;;;;9.05;3.88;;;13.00;89.30;;;;;;4903933;29;20124;-81
2022/04/15 00:33:15;;;;;;;9.30;4.80;;;13.00;88.80;;;;;;4900102;29;20055;-80
2022/04/15 00:35:40;;;;;;;12.63;4.82;;;13.00;88.80;;;;;;4904736;29;20060;-81
2022/04/15 00:38:07;;;;;;;11.35;4.65;;;13.00;89.10;;;;;;4915022;29;20029;-80
2022/04/15 00:40:33;;;;;;;9.80;5.22;;;13.00;89.70;;;;;;4919026;29;20039;-80
2022/04/15 00:42:59;;;;;;;9.73;5.00;;;12.90;89.80;;;;;;4913472;29;20062;-82
2022/04/15 00:45:25;;;;;;;12.02;5.40;;;12.90;90.10;;;;;;4910400;29;20493;-81
2022/04/15 00:47:56;;;;;;;7.30;4.40;;;12.90;90.60;;;;;;4905097;29;20053;-82
2022/04/15 00:50:28;;;;;;;12.63;5.20;;;12.80;90.90;;;;;;4901883;29;20393;-81
2022/04/15 00:52:57;;;;;;;15.10;5.53;;;12.80;91.00;;;;;;4903416;29;20025;-80
2022/04/15 00:55:23;;;;;;;12.25;4.90;;;12.80;91.10;;;;;;4904141;29;20370;-80
2022/04/15 00:57:52;;;;;;;12.00;5.35;;;12.80;91.30;;;;;;4906168;29;20485;-82
2022/04/15 01:00:20;;;;;;;11.38;5.20;;;12.80;91.20;;;;;;4906853;29;20397;-81
2022/04/15 01:02:46;;;;;;;12.05;5.10;;;12.80;91.50;;;;;;4906176;29;20044;-80
2022/04/15 01:05:13;;;;;;;11.95;4.75;;;12.90;91.70;;;;;;4905118;29;20041;-80
2022/04/15 01:07:47;;;;;;;9.63;5.22;;;12.90;91.80;;;;;;4905887;29;20028;-81
2022/04/15 01:10:14;;;;;;;15.43;5.97;;;12.80;92.00;;;;;;4906726;29;20067;-82
2022/04/15 01:12:43;;;;;;;16.30;5.00;;;12.90;91.80;;;;;;4908291;29;20831;-82
2022/04/15 01:15:11;;;;;;;12.88;5.82;;;12.90;92.00;;;;;;4908402;29;20088;-80
2022/04/15 01:17:37;;;;;;;9.88;5.28;;;12.80;92.60;;;;;;4914934;29;20044;-78
2022/04/15 01:20:05;;;;;;;10.85;5.32;;;12.80;93.10;;;;;;4922244;29;20048;-80
2022/04/15 01:22:38;;;;;;;9.82;5.50;;;12.80;93.10;;;;;;4894050;29;20036;-81
2022/04/15 01:25:08;;;;;;;18.02;6.47;;;12.80;93.20;;;;;;4907562;29;20040;-80
2022/04/15 01:27:36;;;;;;;14.38;5.80;;;12.80;93.50;;;;;;4906070;29;20056;-82
2022/04/15 01:30:10;;;;;;;17.08;5.78;;;12.80;93.80;;;;;;4906861;29;20300;-82
2022/04/15 01:32:35;;;;;;;11.95;5.15;;;12.90;93.80;;;;;;4908557;29;20029;-82
2022/04/15 01:35:01;;;;;;;13.68;5.60;;;12.80;93.90;;;;;;4906083;29;20095;-81
2022/04/15 01:37:30;;;;;;;13.55;4.93;;;12.90;93.80;;;;;;4908188;29;20063;-80
2022/04/15 01:39:56;;;;;;;18.65;6.57;;;12.90;93.80;;;;;;4905152;29;20115;-82
2022/04/15 01:42:22;;;;;;;14.30;5.75;;;12.90;93.80;;;;;;4906661;29;20116;-82
2022/04/15 01:44:48;;;;;;;12.55;5.22;;;13.00;93.70;;;;;;4906460;29;20032;-80
2022/04/15 01:47:16;;;;;;;13.88;5.25;;;13.00;93.60;;;;;;4908675;29;20024;-81
2022/04/15 01:49:42;;;;;;;15.48;5.70;;;13.00;94.10;;;;;;4906944;29;20051;-82
2022/04/15 01:52:08;;;;;;;10.43;5.50;;;13.10;94.40;;;;;;4907462;29;20047;-80
2022/04/15 01:54:34;;;;;;;9.95;5.10;;;13.10;94.00;;;;;;4915628;29;20021;-81
2022/04/15 01:57:01;;;;;;;10.02;5.15;;;13.10;93.90;;;;;;4912534;29;20044;-80
2022/04/15 01:59:27;;;;;;;13.57;6.15;;;13.10;93.90;;;;;;4918117;29;20046;-80
2022/04/15 02:01:56;;;;;;;12.70;5.55;;;13.10;94.30;;;;;;4914162;29;20097;-78
2022/04/15 02:04:26;;;;;;;13.18;5.35;;;13.20;93.90;;;;;;4913335;29;20028;-80
2022/04/15 02:06:52;;;;;;;13.38;6.00;;;13.20;94.00;;;;;;4909904;29;20116;-80
2022/04/15 02:09:18;;;;;;;16.73;5.75;;;13.30;94.00;;;;;;4910365;29;20040;-81
2022/04/15 02:11:45;;;;;;;16.10;5.10;;;13.30;94.90;;;;;;4913507;29;20036;-80
2022/04/15 02:14:12;;;;;;;13.70;5.13;;;13.40;95.90;;;;;;4912525;29;20012;-80
2022/04/15 02:16:39;;;;;;;10.75;5.50;;;13.30;95.70;;;;;;4906678;29;20052;-80
2022/04/15 02:19:05;;;;;;;16.70;6.88;;;13.30;95.20;;;;;;4915620;29;20084;-79
2022/04/15 02:21:31;;;;;;;16.92;7.30;;;13.50;94.90;;;;;;4912485;29;20079;-79
2022/04/15 02:23:57;;;;;;;14.57;6.88;;;13.60;94.50;;;;;;4906891;29;20024;-80
2022/04/15 02:26:23;;;;;;;16.33;7.15;;;13.70;94.20;;;;;;4907473;29;20123;-81
2022/04/15 02:28:49;;;;;;;16.30;9.30;;;13.80;94.00;;;;;;4907426;29;20021;-82
2022/04/15 02:31:15;;;;;;;22.25;9.85;;;14.00;94.40;;;;;;4912774;29;20029;-79
2022/04/15 02:33:41;;;;;;;24.77;10.75;;;14.10;94.70;;;;;;4911312;29;20031;-81
2022/04/15 02:36:07;;;;;;;24.02;12.02;;;14.20;94.90;;;;;;4910153;29;20029;-81
2022/04/15 02:38:33;;;;;;;21.73;12.40;;;14.40;95.50;;;;;;4913511;29;20445;-81
2022/04/15 02:41:00;;;;;;;21.85;11.63;;;14.40;95.40;;;;;;4908020;29;20043;-81
2022/04/15 02:43:31;;;;;;;21.08;12.50;;;14.40;95.50;;;;;;4906611;29;20035;-80
2022/04/15 02:46:02;;;;;;;27.10;12.60;;;14.40;95.80;;;;;;4905261;29;20033;-79
2022/04/15 02:48:29;;;;;;;28.10;14.25;;;14.40;96.10;;;;;;4906301;29;20032;-81
2022/04/15 02:50:55;;;;;;;28.10;14.95;;;14.40;96.60;;;;;;4905345;29;20025;-82
2022/04/15 02:53:23;;;;;;;25.02;14.20;;;14.50;97.10;;;;;;4905956;29;20037;-80
2022/04/15 02:55:52;;;;;;;23.38;14.38;;;14.50;97.30;;;;;;4907711;29;20103;-80
2022/04/15 02:58:18;;;;;;;25.73;16.00;;;14.40;98.10;;;;;;4904582;29;20040;-81
2022/04/15 03:00:45;;;;;;;22.35;15.20;;;14.40;98.90;;;;;;4904347;29;20035;-80
2022/04/15 03:03:11;;;;;;;29.02;15.48;;;14.40;99.40;;;;;;4890527;29;20029;-81
2022/04/15 03:05:38;;;;;;;29.85;16.52;;;14.40;99.90;;;;;;4907461;29;20029;-82
2022/04/15 03:08:05;;;;;;;26.38;16.35;;;14.40;99.90;;;;;;4910353;29;20028;-81
2022/04/15 03:10:30;;;;;;;28.23;17.10;;;14.40;99.90;;;;;;4907650;29;20055;-81
2022/04/15 03:12:56;;;;;;;26.27;16.40;;;14.40;99.90;;;;;;4904274;29;20033;-81
2022/04/15 03:15:22;;;;;;;32.28;17.25;;;14.30;99.90;;;;;;4910145;29;20040;-80
2022/04/15 03:17:48;;;;;;;29.10;15.65;;;14.40;99.90;;;;;;4893360;29;20047;-82
2022/04/15 03:20:14;;;;;;;29.30;16.27;;;14.40;99.90;;;;;;4905881;29;20024;-80
2022/04/15 03:22:41;;;;;;;34.15;16.77;;;14.30;99.90;;;;;;4905698;29;20035;-80
2022/04/15 03:25:10;;;;;;;27.60;14.68;;;14.30;99.90;;;;;;4905579;29;20036;-81
2022/04/15 03:27:36;;;;;;;25.33;14.40;;;14.30;99.90;;;;;;4907204;29;20056;-81
2022/04/15 03:30:02;;;;;;;26.92;15.07;;;14.30;99.90;;;;;;4909433;29;20031;-80
2022/04/15 03:32:29;;;;;;;23.38;14.63;;;14.20;99.90;;;;;;4914920;29;20033;-80
2022/04/15 03:34:57;;;;;;;20.92;13.70;;;14.20;99.90;;;;;;4917704;29;20084;-80
2022/04/15 03:37:24;;;;;;;23.60;14.77;;;14.10;99.90;;;;;;4920100;29;20061;-80
2022/04/15 03:39:51;;;;;;;24.05;13.60;;;14.10;99.90;;;;;;4911894;29;20044;-81
2022/04/15 03:42:17;;;;;;;25.58;14.23;;;14.00;99.90;;;;;;4912493;29;20064;-82
2022/04/15 03:44:42;;;;;;;21.75;13.48;;;14.00;99.90;;;;;;4914004;29;20025;-79
2022/04/15 03:47:08;;;;;;;26.80;13.98;;;14.00;99.90;;;;;;4916423;29;20086;-79
2022/04/15 03:49:34;;;;;;;24.15;14.38;;;14.00;99.90;;;;;;4917041;29;20017;-79
2022/04/15 03:52:00;;;;;;;27.17;12.95;;;14.00;99.90;;;;;;4915748;29;20029;-79
2022/04/15 03:54:26;;;;;;;24.70;13.48;;;13.90;99.90;;;;;;4919648;29;20035;-81
2022/04/15 03:56:52;;;;;;;21.45;12.98;;;13.90;99.90;;;;;;4914006;29;20076;-82
2022/04/15 03:59:18;;;;;;;26.00;13.13;;;13.90;99.90;;;;;;4917004;29;20056;-81
2022/04/15 04:01:44;;;;;;;22.00;12.32;;;13.90;99.90;;;;;;4924562;29;20028;-80
2022/04/15 04:04:10;;;;;;;19.73;12.60;;;13.90;99.90;;;;;;4915357;29;20055;-81
2022/04/15 04:06:36;;;;;;;17.73;11.88;;;13.90;99.90;;;;;;4918029;29;20032;-79
2022/04/15 04:09:02;;;;;;;20.33;11.85;;;13.90;99.90;;;;;;4916279;29;20035;-79
2022/04/15 04:11:27;;;;;;;21.67;11.70;;;13.90;99.90;;;;;;4917819;29;20066;-80
2022/04/15 04:13:53;;;;;;;17.40;11.68;;;13.90;99.90;;;;;;4908995;29;20076;-80
2022/04/15 04:16:19;;;;;;;19.88;11.68;;;13.90;99.90;;;;;;4906585;29;20051;-80
2022/04/15 04:18:46;;;;;;;19.88;10.82;;;13.90;99.90;;;;;;4908699;29;20039;-81
2022/04/15 04:21:12;;;;;;;22.33;10.70;;;13.90;99.90;;;;;;4908767;29;20047;-81
2022/04/15 04:23:39;;;;;;;15.38;9.80;;;13.90;99.90;;;;;;4908675;29;20029;-81
2022/04/15 04:26:05;;;;;;;19.45;10.10;;;13.90;99.90;;;;;;4908163;29;20040;-81
2022/04/15 04:28:32;;;;;;;20.80;10.45;;;13.80;99.90;;;;;;4914630;29;20033;-81
2022/04/15 04:30:58;;;;;;;14.55;9.15;;;13.90;99.90;;;;;;4912620;29;20051;-82
2022/04/15 04:33:24;;;;;;;21.15;9.43;;;13.90;99.90;;;;;;4920084;29;20033;-79
2022/04/15 04:35:50;;;;;;;17.75;8.98;;;13.90;99.90;;;;;;4913094;29;20504;-81
2022/04/15 04:38:16;;;;;;;22.25;9.35;;;13.90;99.90;;;;;;4920890;29;20028;-80
2022/04/15 04:40:43;;;;;;;16.05;8.70;;;14.00;99.90;;;;;;4919339;29;20118;-80
2022/04/15 04:43:10;;;;;;;17.50;8.98;;;14.00;99.90;;;;;;4918129;29;20043;-80
2022/04/15 04:45:36;;;;;;;13.43;8.30;;;14.10;99.90;;;;;;4920538;29;20041;-81
2022/04/15 04:48:04;;;;;;;18.55;7.75;;;14.10;99.90;;;;;;4919364;29;20040;-81
2022/04/15 04:50:31;;;;;;;14.35;8.30;;;14.20;99.90;;;;;;4916965;29;20035;-81
2022/04/15 04:52:58;;;;;;;19.45;8.43;;;14.30;99.90;;;;;;4918491;29;20276;-81
2022/04/15 04:55:24;;;;;;;12.35;7.70;;;14.40;99.90;;;;;;4920297;29;20041;-80
2022/04/15 04:57:50;;;;;;;15.98;7.70;;;14.50;99.90;;;;;;4920899;29;20033;-79
2022/04/15 05:00:17;;;;;;;13.63;7.25;;;14.60;99.90;;;;;;4920559;29;20033;-83
2022/04/15 05:02:44;;;;;;;17.92;7.70;;;14.70;99.90;;;;;;4913740;29;20052;-82
2022/04/15 05:05:10;;;;;;;14.98;7.03;;;14.80;99.90;;;;;;4913260;29;20088;-81
2022/04/15 05:07:37;;;;;;;13.45;7.20;;;14.80;99.90;;;;;;4916334;29;20020;-83
2022/04/15 05:10:05;;;;;;;11.10;6.55;;;14.80;99.90;;;;;;4917504;29;20044;-80
2022/04/15 05:12:30;;;;;;;11.43;6.43;;;14.90;99.90;;;;;;4920180;29;20035;-81
2022/04/15 05:14:56;;;;;;;22.05;7.05;;;14.90;99.90;;;;;;4914373;29;20392;-81
2022/04/15 05:17:22;;;;;;;10.77;6.85;;;15.00;99.90;;;;;;4911817;29;20020;-83
2022/04/15 05:19:48;;;;;;;11.52;6.55;;;15.00;99.90;;;;;;4911217;29;20116;-83
2022/04/15 05:22:14;;;;;;;15.35;6.28;;;15.00;99.90;;;;;;4914916;29;20016;-82
2022/04/15 05:24:40;;;;;;;11.75;6.05;;;15.00;99.90;;;;;;4916938;29;20024;-81
2022/04/15 05:27:06;;;;;;;11.05;6.57;;;14.90;99.90;;;;;;4916500;29;20027;-81
2022/04/15 05:29:32;;;;;;;14.95;5.75;;;15.00;99.90;;;;;;4916582;29;20019;-82
2022/04/15 05:31:59;;;;;;;16.80;6.97;;;15.00;99.90;;;;;;4912320;29;20029;-82
2022/04/15 05:34:25;;;;;;;11.00;6.20;;;15.00;99.90;;;;;;4912155;29;20048;-83
2022/04/15 05:36:50;;;;;;;12.73;6.80;;;15.00;99.90;;;;;;4908870;29;20033;-80
2022/04/15 05:39:16;;;;;;;16.80;6.68;;;15.10;99.90;;;;;;4890635;29;20032;-80
2022/04/15 05:41:42;;;;;;;11.57;6.93;;;15.10;99.90;;;;;;4935369;23;20082;-86
2022/04/15 05:44:08;;;;;;;9.75;6.70;;;15.20;99.90;;;;;;4918377;29;20038;-83
2022/04/15 05:46:37;;;;;;;14.63;6.85;;;15.30;99.90;;;;;;4916469;29;20032;-85
2022/04/15 05:49:05;;;;;;;14.23;6.22;;;15.40;99.90;;;;;;4916119;29;20036;-85
2022/04/15 05:51:31;;;;;;;13.13;6.57;;;15.50;99.90;;;;;;4917677;29;20036;-88
2022/04/15 05:53:57;;;;;;;10.25;6.57;;;15.70;99.90;;;;;;4913441;29;20035;-84
2022/04/15 05:56:23;;;;;;;14.43;6.40;;;15.70;99.90;;;;;;4915212;29;20029;-85
2022/04/15 05:58:49;;;;;;;9.55;5.50;;;15.80;99.90;;;;;;4922355;29;20029;-83
2022/04/15 06:01:15;;;;;;;15.32;6.38;;;15.70;99.90;;;;;;4917051;29;20064;-84
2022/04/15 06:03:40;;;;;;;8.43;5.85;;;15.70;99.90;;;;;;4915010;29;20028;-85
2022/04/15 06:06:06;;;;;;;11.77;5.75;;;15.70;99.90;;;;;;4916188;29;20539;-85
2022/04/15 06:08:32;;;;;;;9.35;6.07;;;15.70;99.90;;;;;;4916244;29;20029;-85
2022/04/15 06:10:59;;;;;;;9.57;5.35;;;15.70;99.90;;;;;;4916969;29;20032;-89
2022/04/15 06:13:29;;;;;;;9.85;5.32;;;15.70;99.90;;;;;;4914243;29;20032;-86
2022/04/15 06:15:58;;;;;;;16.60;6.40;;;15.70;99.90;;;;;;4915817;29;20036;-85
2022/04/15 06:18:29;;;;;;;14.70;6.53;;;15.60;99.90;;;;;;4910940;29;20044;-83
2022/04/15 06:20:54;;;;;;;12.43;6.18;;;15.50;99.90;;;;;;4913140;29;20032;-86
2022/04/15 06:23:20;;;;;;;12.95;5.95;;;15.60;99.90;;;;;;4915968;29;20036;-82
2022/04/15 06:25:46;;;;;;;9.70;5.43;;;15.60;99.90;;;;;;4914496;29;20032;-85
2022/04/15 06:28:13;;;;;;;13.60;5.72;;;15.60;99.90;;;;;;4912834;29;20025;-82
2022/04/15 06:30:39;;;;;;;16.23;5.07;;;15.60;99.90;;;;;;4911932;29;20084;-90
2022/04/15 06:33:06;;;;;;;9.23;4.47;;;15.60;99.90;;;;;;4891151;29;20097;-85
2022/04/15 06:35:36;;;;;;;10.77;4.50;;;15.50;99.90;;;;;;4910976;29;20044;-84
2022/04/15 06:38:02;;;;;;;9.63;4.20;;;15.40;99.90;;;;;;4909277;29;20036;-83
2022/04/15 06:40:28;;;;;;;8.45;3.97;;;15.30;99.90;;;;;;4911711;29;20107;-85
2022/04/15 06:42:54;;;;;;;6.43;3.88;;;15.20;99.90;;;;;;4919092;29;20040;-81
2022/04/15 06:45:20;;;;;;;9.50;3.95;;;15.00;99.90;;;;;;4913129;29;20033;-83
2022/04/15 06:47:46;;;;;;;11.80;3.78;;;14.90;99.90;;;;;;4916035;29;20036;-85
2022/04/15 06:50:12;;;;;;;8.10;4.53;;;14.80;99.90;;;;;;4918660;29;20056;-81
2022/04/15 06:52:37;;;;;;;7.68;3.67;;;14.70;99.90;;;;;;4913120;29;20080;-86
2022/04/15 06:55:06;;;;;;;8.57;4.13;;;14.60;99.90;;;;;;4921672;29;20033;-87
2022/04/15 06:57:32;;;;;;;7.72;3.92;;;14.50;99.90;;;;;;4916737;29;20039;-84
2022/04/15 06:59:59;;;;;;;8.38;4.15;;;14.40;99.90;;;;;;4910028;29;20033;-83
2022/04/15 07:02:28;;;;;;;6.13;4.15;;;14.40;99.90;;;;;;4911137;29;20048;-83
2022/04/15 07:04:53;;;;;;;13.30;4.60;;;14.40;99.90;;;;;;4932973;29;20039;-85
2022/04/15 07:07:19;;;;;;;10.35;5.15;;;14.40;99.90;;;;;;4919701;29;20028;-84
2022/04/15 07:09:45;;;;;;;11.85;4.20;;;14.40;99.90;;;;;;4910763;29;20064;-84
2022/04/15 07:12:11;;;;;;;9.40;4.55;;;14.50;99.90;;;;;;4906430;29;20068;-84
2022/04/15 07:14:36;;;;;;;11.25;4.93;;;14.60;99.90;;;;;;4896637;29;20100;-85
2022/04/15 07:17:03;;;;;;;8.77;4.65;;;14.70;99.90;;;;;;4916745;29;20056;-84
2022/04/15 07:19:28;;;;;;;8.00;5.25;;;14.70;99.90;;;;;;4919734;29;20029;-84
2022/04/15 07:21:54;;;;;;;9.85;4.97;;;14.70;99.90;;;;;;4914826;29;20008;-86
2022/04/15 07:24:21;;;;;;;11.40;5.50;;;14.70;99.90;;;;;;4933561;29;20048;-85
2022/04/15 07:26:47;;;;;;;13.85;6.03;;;14.60;99.90;;;;;;4923303;29;20036;-82
2022/04/15 07:29:13;;;;;;;10.10;5.63;;;14.70;99.90;;;;;;4909938;29;20092;-83
2022/04/15 07:31:40;;;;;;;12.18;5.90;;;14.70;99.90;;;;;;4915098;29;20044;-85
2022/04/15 07:34:06;;;;;;;12.43;6.60;;;14.70;99.90;;;;;;4913974;29;20032;-86
2022/04/15 07:39:03;;;;;;;15.27;6.60;;;14.60;99.90;;;;;;4916814;29;20060;-84
2022/04/15 07:41:28;;;;;;;10.52;7.30;;;14.50;99.90;;;;;;4922170;29;20047;-85
2022/04/15 07:43:54;;;;;;;9.45;6.43;;;14.60;99.90;;;;;;4927745;29;20083;-82
2022/04/15 07:46:20;;;;;;;10.82;6.82;;;14.50;99.90;;;;;;4939843;29;20060;-81
2022/04/15 07:48:46;;;;;;;9.80;7.07;;;14.50;99.90;;;;;;4924833;29;20004;-83
2022/04/15 07:51:12;;;;;;;18.95;8.48;;;14.50;99.90;;;;;;4910976;29;20027;-82
2022/04/15 07:53:37;;;;;;;10.32;6.90;;;14.50;99.90;;;;;;4911107;29;20496;-86
2022/04/15 07:56:04;;;;;;;12.45;6.50;;;14.50;99.90;;;;;;4913970;29;20028;-84
2022/04/15 07:58:30;;;;;;;11.32;6.68;;;14.50;99.90;;;;;;4915965;29;20037;-84
2022/04/15 08:00:59;;;;;;;9.60;6.35;;;14.50;99.90;;;;;;4918806;29;20088;-82
2022/04/15 08:03:26;;;;;;;11.55;7.35;;;14.60;99.90;;;;;;4911375;29;20536;-85
2022/04/15 08:05:52;;;;;;;15.32;7.22;;;14.60;99.90;;;;;;4906246;29;20024;-84
2022/04/15 08:08:18;;;;;;;8.95;6.65;;;14.70;99.90;;;;;;4914482;29;20062;-85
2022/04/15 08:10:44;;;;;;;13.57;6.70;;;14.70;99.90;;;;;;4913109;29;20036;-82
2022/04/15 08:13:09;;;;;;;10.35;7.15;;;14.70;99.90;;;;;;4915551;29;20032;-84
2022/04/15 08:15:35;;;;;;;17.95;7.53;;;14.80;99.90;;;;;;4910658;29;20025;-85
2022/04/15 08:18:02;;;;;;;9.30;7.22;;;14.80;99.90;;;;;;4912039;29;20037;-86
2022/04/15 08:20:28;;;;;;;13.52;6.88;;;14.70;99.90;;;;;;4910317;29;20032;-84
2022/04/15 08:22:53;;;;;;;11.80;7.35;;;14.70;99.90;;;;;;4923560;29;20020;-83
2022/04/15 08:25:19;;;;;;;12.50;6.78;;;14.70;99.90;;;;;;4925668;29;20068;-81
2022/04/15 08:27:45;;;;;;;14.40;6.85;;;14.70;99.90;;;;;;4921024;29;20098;-84
2022/04/15 08:30:11;;;;;;;13.13;7.05;;;14.70;99.90;;;;;;4914908;29;20044;-84
2022/04/15 08:32:36;;;;;;;12.50;6.70;;;14.80;99.90;;;;;;4920386;29;20040;-85
2022/04/15 08:35:04;;;;;;;11.18;6.90;;;14.80;99.90;;;;;;4918051;29;20032;-82
2022/04/15 08:37:30;;;;;;;16.13;7.72;;;14.80;99.90;;;;;;4922329;29;20057;-82
2022/04/15 08:39:56;;;;;;;13.48;6.80;;;14.80;99.90;;;;;;4923366;29;20091;-82
2022/04/15 08:42:22;;;;;;;11.18;7.25;;;14.80;99.90;;;;;;4921550;29;20052;-84
2022/04/15 08:44:51;;;;;;;9.90;6.82;;;14.80;99.90;;;;;;4913021;29;20032;-80
2022/04/15 08:47:18;;;;;;;14.85;6.35;;;14.80;99.90;;;;;;4917673;29;20023;-83
2022/04/15 08:49:45;;;;;;;12.55;6.57;;;14.80;99.90;;;;;;4913724;29;20069;-83
2022/04/15 08:52:15;;;;;;;11.35;6.38;;;14.80;99.90;;;;;;4914916;29;20039;-82
2022/04/15 08:54:40;;;;;;;11.13;6.05;;;14.80;99.90;;;;;;4914971;29;20037;-82
2022/04/15 08:57:07;;;;;;;12.10;5.60;;;14.90;99.90;;;;;;4931541;29;20025;-81
2022/04/15 08:59:33;;;;;;;8.60;5.05;;;14.80;99.90;;;;;;4932784;29;20036;-85
2022/04/15 09:01:59;;;;;;;11.35;5.55;;;14.80;99.90;;;;;;4919359;29;20037;-82
2022/04/15 09:04:25;;;;;;;13.25;6.05;;;14.80;99.90;;;;;;4917600;29;20032;-86
2022/04/15 09:07:02;;;;;;;13.18;5.75;;;14.80;99.90;;;;;;4919137;29;20032;-84
2022/04/15 09:09:33;;;;;;;12.20;5.40;;;14.80;99.90;;;;;;4918937;29;20025;-84
2022/04/15 09:12:03;;;;;;;11.50;5.68;;;14.90;99.90;;;;;;4909443;29;20044;-81
2022/04/15 09:14:29;;;;;;;11.23;6.07;;;15.20;99.90;;;;;;4921606;29;20037;-81
2022/04/15 09:16:55;;;;;;;8.45;5.40;;;15.40;99.90;;;;;;4930096;29;20055;-84
2022/04/15 09:19:21;;;;;;;9.88;5.60;;;15.60;99.90;;;;;;4932452;29;20060;-82
2022/04/15 09:21:58;;;;;;;11.95;5.93;;;15.60;99.90;;;;;;4919683;29;20024;-83
2022/04/15 09:24:30;;;;;;;9.75;5.50;;;15.60;99.90;;;;;;4916840;29;20055;-83
2022/04/15 09:26:56;;;;;;;11.18;5.68;;;15.80;99.90;;;;;;4917376;29;20036;-82
2022/04/15 09:29:25;;;;;;;12.50;5.00;;;16.10;99.90;;;;;;4916783;29;20057;-83
2022/04/15 09:31:55;;;;;;;8.10;4.95;;;16.40;99.90;;;;;;4930508;29;20016;-85
2022/04/15 09:34:21;;;;;;;8.65;4.28;;;16.70;99.90;;;;;;4935625;29;20036;-84
2022/04/15 09:36:47;;;;;;;7.43;3.58;;;17.40;99.90;;;;;;4929470;29;20024;-86
2022/04/15 09:39:14;;;;;;;12.45;3.60;;;18.30;99.90;;;;;;4916019;29;20094;-86
2022/04/15 09:41:50;;;;;;;5.00;3.00;;;18.40;99.90;;;;;;4912917;29;20127;-84
2022/04/15 09:44:16;;;;;;;3.83;2.60;;;18.50;99.90;;;;;;4916043;29;20036;-85
2022/04/15 09:46:46;;;;;;;4.38;2.63;;;18.80;99.90;;;;;;4917665;29;20025;-85
2022/04/15 09:49:12;;;;;;;4.90;2.40;;;18.80;99.90;;;;;;4913419;29;20151;-83
2022/04/15 09:51:46;;;;;;;5.75;2.55;;;18.90;99.90;;;;;;4927514;29;20031;-85
2022/04/15 09:54:27;;;;;;;5.15;2.40;;;19.70;99.90;;;;;;4922957;29;20103;-85
2022/04/15 09:56:57;;;;;;;4.82;2.30;;;21.10;98.20;;;;;;4913695;29;20029;-84
2022/04/15 09:59:27;;;;;;;5.45;2.50;;;23.10;95.40;;;;;;4919201;29;20016;-84
2022/04/15 10:02:02;;;;;;;4.47;3.50;;;23.80;93.30;;;;;;4927305;29;20054;-82
2022/04/15 10:04:28;;;;;;;5.38;2.38;;;24.10;93.10;;;;;;4919595;29;20033;-84
2022/04/15 10:06:55;;;;;;;4.50;2.63;;;24.60;88.90;;;;;;4914899;29;20051;-83
2022/04/15 10:09:22;;;;;;;4.80;2.13;;;24.70;88.10;;;;;;4919461;29;20046;-84
2022/04/15 10:11:49;;;;;;;3.90;2.22;;;25.50;84.20;;;;;;4916563;29;20040;-86
2022/04/15 10:14:16;;;;;;;5.47;1.98;;;27.40;79.40;;;;;;4919755;29;20068;-83
2022/04/15 10:16:43;;;;;;;5.28;2.20;;;29.10;74.10;;;;;;4920644;29;20043;-85
2022/04/15 10:19:11;;;;;;;5.75;2.10;;;30.50;70.60;;;;;;4919314;29;20046;-86
2022/04/15 10:21:38;;;;;;;3.55;1.98;;;31.20;66.90;;;;;;4918645;29;20029;-84
2022/04/15 10:24:08;;;;;;;3.88;1.67;;;30.90;64.50;;;;;;4916732;29;20051;-87
2022/04/15 10:26:41;;;;;;;6.32;2.50;;;30.50;63.40;;;;;;4918314;29;20032;-84
2022/04/15 10:29:09;;;;;;;4.35;2.17;;;30.80;62.60;;;;;;4915562;29;20108;-85
2022/04/15 10:31:46;;;;;;;6.65;2.20;;;30.90;61.90;;;;;;4921557;29;20041;-82
2022/04/15 10:34:13;;;;;;;3.10;2.00;;;31.60;61.30;;;;;;4919369;29;20096;-84
2022/04/15 10:36:44;;;;;;;8.13;2.85;;;32.30;60.40;;;;;;4917407;29;20056;-87
2022/04/15 10:39:11;;;;;;;3.80;2.40;;;32.00;60.00;;;;;;4929361;29;20039;-87
2022/04/15 10:41:58;;;;;;;4.20;2.47;;;31.60;60.50;;;;;;4916634;29;20028;-87
2022/04/15 10:44:28;;;;;;;8.27;3.05;;;32.30;59.80;;;;;;4919471;29;20065;-88
2022/04/15 10:47:19;;;;;;;8.73;3.65;;;33.00;58.90;;;;;;4911231;29;20033;-88
2022/04/15 10:49:56;;;;;;;5.88;3.30;;;33.30;58.40;;;;;;4918466;29;20044;-84
2022/04/15 10:52:27;;;;;;;7.60;3.72;;;33.40;58.90;;;;;;4921894;29;20072;-84
2022/04/15 10:54:57;;;;;;;6.93;3.78;;;33.00;58.20;;;;;;4921445;29;20043;-83
2022/04/15 10:57:31;;;;;;;8.07;3.72;;;32.30;58.80;;;;;;4930324;29;20489;-88
2022/04/15 11:02:45;;;;;;;7.07;3.00;;;31.70;59.20;;;;;;4908963;29;20092;-87
2022/04/15 11:05:31;;;;;;;4.88;2.35;;;32.40;58.00;;;;;;4907318;29;20035;-84
2022/04/15 11:08:16;;;;;;;6.03;3.33;;;32.60;57.50;;;;;;4907516;29;20100;-86
2022/04/15 11:10:50;;;;;;;5.13;3.20;;;32.60;57.70;;;;;;4909060;29;20029;-86
2022/04/15 11:13:32;;;;;;;9.85;3.97;;;33.20;57.40;;;;;;4922786;29;20048;-86
2022/04/15 11:16:01;;;;;;;6.80;3.97;;;34.00;57.00;;;;;;4915642;29;20046;-86
2022/04/15 11:18:55;;;;;;;10.23;4.18;;;34.70;56.10;;;;;;4907697;29;20068;-87
2022/04/15 11:21:22;;;;;;;4.28;3.30;;;34.90;54.80;;;;;;4915002;29;20023;-86
2022/04/15 11:23:57;;;;;;;5.45;3.10;;;34.70;55.30;;;;;;4919966;29;20044;-85
2022/04/15 11:26:24;;;;;;;6.28;2.97;;;34.70;54.20;;;;;;4912647;29;20037;-86
2022/04/15 11:28:52;;;;;;;5.82;2.88;;;34.30;54.70;;;;;;4907576;29;20012;-86
2022/04/15 11:31:29;;;;;;;4.15;3.13;;;34.20;54.90;;;;;;4907310;29;20591;-87
2022/04/15 11:34:05;;;;;;;5.63;3.00;;;34.40;54.60;;;;;;4904210;29;20054;-86
2022/04/15 11:36:33;;;;;;;5.18;3.40;;;35.10;53.90;;;;;;4905241;29;20048;-86
2022/04/15 11:39:01;;;;;;;6.03;3.70;;;35.30;52.60;;;;;;4907221;29;20088;-86
2022/04/15 11:41:27;;;;;;;4.70;3.47;;;34.40;53.00;;;;;;4926842;23;20091;-82
2022/04/15 11:43:55;;;;;;;7.40;3.88;;;33.10;54.60;;;;;;4910323;29;20028;-82
2022/04/15 11:46:21;;;;;;;8.07;3.83;;;33.50;54.40;;;;;;4920668;29;20041;-84
2022/04/15 11:48:47;;;;;;;4.68;3.40;;;34.20;54.20;;;;;;4921296;29;20077;-83
2022/04/15 11:51:13;;;;;;;3.97;3.35;;;34.30;53.70;;;;;;4914167;29;20032;-81
2022/04/15 11:53:39;;;;;;;6.78;3.30;;;33.90;54.30;;;;;;4915222;29;20082;-82
2022/04/15 11:56:05;;;;;;;6.38;4.13;;;33.40;54.00;;;;;;4915858;29;20033;-81
2022/04/15 11:58:33;;;;;;;7.10;3.92;;;32.20;55.00;;;;;;4906266;29;20063;-83
2022/04/15 12:01:00;;;;;;;6.85;4.00;;;31.50;56.00;;;;;;4913367;29;20258;-83
2022/04/15 12:03:27;;;;;;;9.30;4.03;;;30.90;56.30;;;;;;4912393;29;20057;-84
2022/04/15 12:05:57;;;;;;;6.45;3.20;;;31.20;56.50;;;;;;4917621;29;20088;-85
2022/04/15 12:08:24;;;;;;;5.72;3.53;;;31.80;55.90;;;;;;4920062;29;20066;-82
2022/04/15 12:10:51;;;;;;;7.70;3.33;;;33.00;54.40;;;;;;4888535;29;20044;-84
2022/04/15 12:13:18;;;;;;;5.50;3.75;;;33.30;53.70;;;;;;4917667;29;20021;-82
2022/04/15 12:15:45;;;;;;;5.13;3.15;;;32.30;53.90;;;;;;4917074;29;20119;-81
2022/04/15 12:18:11;;;;;;;8.68;3.53;;;31.10;54.90;;;;;;4912619;29;20342;-80
2022/04/15 12:20:40;;;;;;;6.53;3.80;;;29.90;56.40;;;;;;4910078;29;20545;-83
2022/04/15 12:23:11;;;;;;;6.20;3.80;;;28.70;56.50;;;;;;4899421;29;20040;-84
2022/04/15 12:31:25;;;;;;;9.00;3.70;;;28.90;57.80;;;;;;4907798;29;20234;-83
2022/04/15 12:33:50;;;;;;;5.28;3.47;;;29.70;56.90;;;;;;4890595;29;20040;-82
2022/04/15 12:36:17;;;;;;;6.03;3.90;;;29.10;57.40;;;;;;4907502;29;20036;-82
2022/04/15 12:39:04;;;;;;;5.82;4.40;;;28.60;58.80;;;;;;4910013;29;20036;-82
2022/04/15 12:41:40;;;;;;;8.73;4.82;;;28.10;59.20;;;;;;4907074;29;20037;-80
2022/04/15 12:44:15;;;;;;;9.45;4.70;;;27.40;60.40;;;;;;4910970;29;20067;-82
2022/04/15 12:46:45;;;;;;;8.68;5.35;;;26.60;61.50;;;;;;4912943;29;20067;-82
2022/04/15 12:49:28;;;;;;;8.25;5.57;;;25.80;63.00;;;;;;4906780;29;20146;-82
2022/04/15 12:52:06;;;;;;;9.27;5.65;;;25.00;64.70;;;;;;4915022;29;20033;-82